logo dgac
Miércoles 10 de Agosto del 2022
Buscar por aerodromo o helipuerto
Ingrese nombre de aeródromo, localidad o designador OACI:

Aeródromo: Alto Palena (PUB) (SCAP)

Ubicación: Palena, X Región, Chile (43º 36' 42'' S, 71º 48' 19'' W) Ver ubicación en el mapa

Pistas

Orientación Dimensión Pendiente Superficie Resistencia APCH THR RWY PAPI
07/25 876 x 18 0,50 ASPH PCN 27 F/A/Y/T No No No No
Horas de operación HJ
Elevación 273 m / 897 ft
Otra Información Adm : DGAC
Uso : PUB
TEL 652486286 CEL +56 961732475
Ubicado a 1 km N de Palena


Cámaras de Aeródromos. www.dgac.gob.cl.

Otra información ver AIP-Chile Volumen I AD 3.9-15.2-P
CCCM/FCCV Descargar
andera de Chile
Mapa de Alto Palena (PUB) (SCAP)

Último METAR

METAR SCAP 101700Z VRB01KT CAVOK 07/00 Q1018

Último TAF

No hay tafs registrados para este aeródromo

Últimas fotos cámaras

Imagen aerodromo Alto Palena (PUB) (SCAP) Este tomada el 10-08-2022 05:37:21 Imagen aerodromo Alto Palena (PUB) (SCAP) Oeste tomada el 10-08-2022 05:37:26

Último NOTAM

C3275/22 NOTAMN Q)SCTZ/QMTLX/I/M/A/000/999/4337S07148W005 A)SCAP B)2207222150 C)2209301700 E)THR 25 POR GRIETA LOC A 3M DEL INICIO DEL BORDE DE RWY LEN 20M WID 2CM, CTN